createdAt,value
2018-07-11T00:00:47.506Z,18.50
2018-07-11T00:03:15.649Z,18.49
2018-07-11T00:05:43.379Z,18.53
2018-07-11T00:08:11.057Z,18.55
2018-07-11T00:10:38.767Z,18.62
2018-07-11T00:13:06.436Z,18.24
2018-07-11T00:15:34.146Z,17.96
2018-07-11T00:18:01.876Z,17.80
2018-07-11T00:20:29.560Z,18.24
2018-07-11T00:22:57.389Z,18.40
2018-07-11T00:25:25.209Z,18.42
2018-07-11T00:27:53.008Z,18.20
2018-07-11T00:30:20.732Z,18.30
2018-07-11T00:32:48.488Z,17.91
2018-07-11T00:35:16.286Z,18.20
2018-07-11T00:37:44.090Z,18.08
2018-07-11T00:40:11.924Z,17.74
2018-07-11T00:42:39.691Z,17.58
2018-07-11T00:45:07.537Z,18.02
2018-07-11T00:47:35.345Z,18.13
2018-07-11T00:50:03.017Z,18.17
2018-07-11T00:52:33.202Z,18.06
2018-07-11T00:55:00.951Z,18.07
2018-07-11T00:57:28.732Z,18.12
2018-07-11T00:59:56.553Z,18.05
2018-07-11T01:02:24.372Z,17.80
2018-07-11T01:04:52.236Z,17.94
2018-07-11T01:09:46.257Z,18.11
2018-07-11T01:12:14.147Z,18.13
2018-07-11T01:14:42.026Z,17.91
2018-07-11T01:17:15.547Z,17.84
2018-07-11T01:19:44.104Z,17.36
2018-07-11T01:22:11.896Z,17.63
2018-07-11T01:24:39.682Z,17.76
2018-07-11T01:27:07.524Z,17.83
2018-07-11T01:29:35.349Z,17.82
2018-07-11T01:32:03.061Z,17.55
2018-07-11T01:34:30.785Z,17.59
2018-07-11T01:36:58.538Z,17.12
2018-07-11T01:39:26.332Z,17.12
2018-07-11T01:41:54.103Z,17.31
2018-07-11T01:44:21.870Z,17.18
2018-07-11T01:46:50.914Z,16.88
2018-07-11T01:49:18.779Z,16.79
2018-07-11T01:51:57.945Z,17.24
2018-07-11T01:54:28.164Z,17.28
2018-07-11T01:56:56.140Z,17.38
2018-07-11T01:59:26.611Z,17.39
2018-07-11T02:01:54.683Z,17.13
2018-07-11T02:04:22.567Z,16.83
2018-07-11T02:06:50.390Z,16.71
2018-07-11T02:09:18.403Z,16.71
2018-07-11T02:11:46.140Z,16.55
2018-07-11T02:14:14.017Z,16.63
2018-07-11T02:16:41.889Z,16.56
2018-07-11T02:19:09.723Z,16.48
2018-07-11T02:21:37.615Z,16.43
2018-07-11T02:24:05.852Z,16.40
2018-07-11T02:26:33.662Z,16.43
2018-07-11T02:29:01.521Z,16.66
2018-07-11T02:31:29.420Z,16.64
2018-07-11T02:33:57.337Z,16.47
2018-07-11T02:36:25.141Z,16.58
2018-07-11T02:38:52.951Z,16.46
2018-07-11T02:41:21.007Z,16.64
2018-07-11T02:43:49.423Z,16.56
2018-07-11T02:46:18.573Z,16.62
2018-07-11T02:48:46.380Z,16.85
2018-07-11T02:51:14.227Z,17.02
2018-07-11T02:53:42.005Z,17.35
2018-07-11T02:56:13.243Z,17.29
2018-07-11T02:58:41.055Z,17.60
2018-07-11T03:01:08.781Z,17.76
2018-07-11T03:03:36.527Z,17.90
2018-07-11T03:06:04.267Z,17.69
2018-07-11T03:08:35.960Z,17.33
2018-07-11T03:11:04.574Z,17.37
2018-07-11T03:13:32.427Z,17.32
2018-07-11T03:16:00.274Z,17.27
2018-07-11T03:18:28.055Z,17.43
2018-07-11T03:20:55.887Z,17.31
2018-07-11T03:23:23.684Z,17.36
2018-07-11T03:25:51.639Z,17.39
2018-07-11T03:28:19.454Z,17.49
2018-07-11T03:30:47.195Z,17.40
2018-07-11T03:33:14.994Z,17.51
2018-07-11T03:35:42.722Z,17.57
2018-07-11T03:38:10.515Z,17.59
2018-07-11T03:40:38.335Z,17.51
2018-07-11T03:43:06.147Z,17.62
2018-07-11T03:45:33.931Z,17.83
2018-07-11T03:48:01.668Z,17.77
2018-07-11T03:50:29.417Z,17.70
2018-07-11T03:52:57.171Z,17.58
2018-07-11T03:55:24.884Z,17.67
2018-07-11T03:57:52.606Z,17.80
2018-07-11T04:00:20.414Z,18.16
2018-07-11T04:02:48.113Z,18.72
2018-07-11T04:05:15.827Z,19.06
2018-07-11T04:07:43.557Z,19.38
2018-07-11T04:10:11.275Z,19.52
2018-07-11T04:12:38.983Z,19.71
2018-07-11T04:15:06.700Z,20.02
2018-07-11T04:17:34.441Z,20.17
2018-07-11T04:20:02.173Z,20.24
2018-07-11T04:22:29.943Z,20.51
2018-07-11T04:24:57.738Z,20.63
2018-07-11T04:27:25.638Z,20.70
2018-07-11T04:29:53.428Z,21.05
2018-07-11T04:32:21.259Z,21.28
2018-07-11T04:34:49.118Z,21.21
2018-07-11T04:37:16.899Z,21.49
2018-07-11T04:39:44.911Z,21.61
2018-07-11T04:42:12.714Z,21.86
2018-07-11T04:44:40.603Z,22.15
2018-07-11T04:47:08.490Z,22.22
2018-07-11T04:49:36.474Z,22.35
2018-07-11T04:52:04.280Z,22.53
2018-07-11T04:54:32.150Z,22.22
2018-07-11T04:57:00.008Z,22.01
2018-07-11T04:59:27.722Z,21.95
2018-07-11T05:01:55.435Z,21.84
2018-07-11T05:04:23.250Z,22.06
2018-07-11T05:06:50.940Z,22.10
2018-07-11T05:09:18.651Z,22.36
2018-07-11T05:11:46.371Z,22.51
2018-07-11T05:14:14.086Z,22.88
2018-07-11T05:16:41.799Z,23.21
2018-07-11T05:19:09.551Z,22.87
2018-07-11T05:21:37.266Z,22.94
2018-07-11T05:24:04.968Z,22.75
2018-07-11T05:26:32.681Z,22.80
2018-07-11T05:29:00.397Z,22.82
2018-07-11T05:31:28.101Z,22.87
2018-07-11T05:33:55.850Z,23.00
2018-07-11T05:36:23.588Z,22.79
2018-07-11T05:38:51.335Z,22.86
2018-07-11T05:41:19.062Z,22.77
2018-07-11T05:43:46.779Z,22.81
2018-07-11T05:46:14.490Z,22.94
2018-07-11T05:48:42.215Z,22.89
2018-07-11T05:51:09.915Z,23.03
2018-07-11T05:53:37.626Z,22.94
2018-07-11T05:56:05.332Z,22.93
2018-07-11T05:58:33.043Z,22.85
2018-07-11T06:01:00.771Z,22.89
2018-07-11T06:03:28.487Z,22.92
2018-07-11T06:05:56.211Z,22.89
2018-07-11T06:08:23.959Z,22.87
2018-07-11T06:10:51.656Z,22.84
2018-07-11T06:13:19.434Z,22.89
2018-07-11T06:15:47.756Z,22.92
2018-07-11T06:18:15.494Z,22.89
2018-07-11T06:20:43.183Z,22.83
2018-07-11T06:23:10.973Z,22.85
2018-07-11T06:25:38.699Z,22.84
2018-07-11T06:28:06.450Z,22.87
2018-07-11T06:30:34.210Z,22.82
2018-07-11T06:33:02.099Z,22.81
2018-07-11T06:35:29.830Z,22.86
2018-07-11T06:37:57.620Z,22.83
2018-07-11T06:40:25.337Z,22.90
2018-07-11T06:42:53.583Z,22.90
2018-07-11T06:45:21.320Z,22.94
2018-07-11T06:47:49.085Z,22.88
2018-07-11T06:50:16.777Z,22.90
2018-07-11T06:52:44.499Z,22.92
2018-07-11T06:55:12.200Z,22.92
2018-07-11T06:57:39.947Z,22.94
2018-07-11T07:00:07.744Z,22.96
2018-07-11T07:02:35.454Z,23.00
2018-07-11T07:05:03.272Z,23.00
2018-07-11T07:07:30.984Z,22.99
2018-07-11T07:09:58.717Z,22.97
2018-07-11T07:12:26.428Z,22.97
2018-07-11T07:14:54.130Z,22.96
2018-07-11T07:17:21.870Z,23.00
2018-07-11T07:19:49.587Z,23.00
2018-07-11T07:22:17.287Z,23.01
2018-07-11T07:24:45.019Z,23.01
2018-07-11T07:27:12.759Z,23.02
2018-07-11T07:29:40.459Z,23.01
2018-07-11T07:32:08.171Z,23.02
2018-07-11T07:34:35.920Z,22.98
2018-07-11T07:37:03.649Z,22.98
2018-07-11T07:39:31.706Z,22.94
2018-07-11T07:41:59.585Z,22.92
2018-07-11T07:44:27.400Z,22.90
2018-07-11T07:46:59.099Z,22.89
2018-07-11T07:49:27.243Z,22.92
2018-07-11T07:51:55.099Z,22.95
2018-07-11T07:54:23.213Z,22.95
2018-07-11T07:56:51.059Z,22.96
2018-07-11T07:59:18.915Z,22.96
2018-07-11T08:01:46.724Z,22.96
2018-07-11T08:04:14.566Z,22.97
2018-07-11T08:06:42.333Z,22.96
2018-07-11T08:09:10.009Z,22.95
2018-07-11T08:11:37.739Z,22.95
2018-07-11T08:14:05.512Z,22.97
2018-07-11T08:16:33.222Z,22.95
2018-07-11T08:19:00.935Z,22.95
2018-07-11T08:21:28.725Z,22.97
2018-07-11T08:24:07.494Z,22.98
2018-07-11T08:26:46.345Z,22.97
2018-07-11T08:29:26.038Z,22.97
2018-07-11T08:34:13.195Z,22.96
2018-07-11T08:37:58.340Z,22.95
2018-07-11T08:40:37.329Z,22.94
2018-07-11T08:43:26.269Z,22.94
2018-07-11T08:46:04.986Z,22.90
2018-07-11T08:48:43.921Z,22.92
2018-07-11T08:51:56.123Z,22.95
2018-07-11T08:54:37.162Z,22.95
2018-07-11T08:57:19.079Z,22.93
2018-07-11T08:59:57.212Z,22.88
2018-07-11T09:02:39.462Z,22.87
2018-07-11T09:05:24.829Z,22.87
2018-07-11T09:10:10.010Z,22.88
2018-07-11T09:12:55.356Z,22.84
2018-07-11T09:15:34.885Z,22.85
2018-07-11T09:18:13.974Z,22.86
2018-07-11T09:20:52.923Z,22.88
2018-07-11T09:23:33.691Z,22.90
2018-07-11T09:26:01.346Z,22.91
2018-07-11T09:28:29.046Z,22.90
2018-07-11T09:30:56.769Z,22.89
2018-07-11T09:33:24.481Z,22.89
2018-07-11T09:35:52.172Z,22.89
2018-07-11T09:38:19.832Z,22.86
2018-07-11T09:40:47.561Z,22.81
2018-07-11T09:43:15.370Z,22.81
2018-07-11T09:45:43.277Z,22.79
2018-07-11T09:48:11.068Z,22.78
2018-07-11T09:50:39.157Z,22.79
2018-07-11T09:53:06.938Z,22.78
2018-07-11T09:55:34.760Z,22.78
2018-07-11T09:58:02.558Z,22.80
2018-07-11T10:00:35.794Z,22.78
2018-07-11T10:03:03.589Z,22.75
2018-07-11T10:05:31.371Z,22.78
2018-07-11T10:07:59.032Z,22.79
2018-07-11T10:10:26.715Z,22.79
2018-07-11T10:12:54.450Z,22.76
2018-07-11T10:15:22.120Z,22.77
2018-07-11T10:17:49.921Z,22.78
2018-07-11T10:20:17.597Z,22.73
2018-07-11T10:22:45.367Z,22.72
2018-07-11T10:25:13.109Z,22.72
2018-07-11T10:27:41.525Z,22.74
2018-07-11T10:30:09.205Z,22.72
2018-07-11T10:32:36.869Z,22.73
2018-07-11T10:35:04.747Z,22.76
2018-07-11T10:37:32.450Z,22.74
2018-07-11T10:40:00.141Z,22.73
2018-07-11T10:42:28.161Z,22.74
2018-07-11T10:44:56.157Z,22.72
2018-07-11T10:47:23.861Z,22.74
2018-07-11T10:49:51.547Z,22.76
2018-07-11T10:52:19.312Z,22.75
2018-07-11T10:54:47.143Z,22.71
2018-07-11T10:57:14.947Z,22.68
2018-07-11T10:59:42.724Z,22.69
2018-07-11T11:02:11.957Z,22.63
2018-07-11T11:04:39.637Z,22.57
2018-07-11T11:07:07.422Z,22.59
2018-07-11T11:09:35.097Z,22.56
2018-07-11T11:12:02.840Z,22.55
2018-07-11T11:14:30.498Z,22.56
2018-07-11T11:16:58.175Z,22.55
2018-07-11T11:19:26.002Z,22.59
2018-07-11T11:21:53.793Z,22.58
2018-07-11T11:24:21.540Z,22.49
2018-07-11T11:26:49.214Z,22.55
2018-07-11T11:29:16.997Z,22.37
2018-07-11T11:31:44.726Z,22.45
2018-07-11T11:34:12.437Z,22.46
2018-07-11T11:36:40.154Z,22.40
2018-07-11T11:39:07.897Z,22.40
2018-07-11T11:41:35.691Z,22.43
2018-07-11T11:44:03.383Z,22.42
2018-07-11T11:46:31.079Z,22.42
2018-07-11T11:48:58.814Z,22.45
2018-07-11T11:51:26.502Z,22.41
2018-07-11T11:53:54.313Z,22.45
2018-07-11T11:56:21.997Z,22.45
2018-07-11T11:58:49.692Z,22.41
2018-07-11T12:01:17.387Z,22.38
2018-07-11T12:03:45.086Z,22.33
2018-07-11T12:06:12.795Z,22.31
2018-07-11T12:08:40.525Z,22.29
2018-07-11T12:11:08.246Z,22.33
2018-07-11T12:13:35.996Z,21.14
2018-07-11T12:16:05.618Z,22.30
2018-07-11T12:18:33.308Z,22.30
2018-07-11T12:21:01.069Z,22.29
2018-07-11T12:23:29.053Z,22.26
2018-07-11T12:26:12.774Z,22.27
2018-07-11T12:28:40.477Z,22.30
2018-07-11T12:31:08.189Z,22.27
2018-07-11T12:33:36.006Z,22.33
2018-07-11T12:36:03.941Z,22.28
2018-07-11T12:38:32.479Z,22.25
2018-07-11T12:41:00.340Z,22.25
2018-07-11T12:43:28.270Z,22.25
2018-07-11T12:45:56.677Z,22.20
2018-07-11T12:48:29.937Z,22.12
2018-07-11T12:50:57.785Z,22.14
2018-07-11T12:53:25.561Z,22.01
2018-07-11T12:55:53.321Z,22.05
2018-07-11T12:58:21.063Z,22.07
2018-07-11T13:00:49.145Z,22.06
2018-07-11T13:03:16.975Z,22.08
2018-07-11T13:05:44.776Z,22.09
2018-07-11T13:08:12.543Z,22.08
2018-07-11T13:10:40.351Z,22.12
2018-07-11T13:13:08.111Z,22.11
2018-07-11T13:15:35.853Z,22.15
2018-07-11T13:18:03.586Z,22.12
2018-07-11T13:20:31.315Z,22.12
2018-07-11T13:22:59.054Z,22.16
2018-07-11T13:25:26.826Z,22.18
2018-07-11T13:27:54.557Z,22.20
2018-07-11T13:30:23.270Z,22.11
2018-07-11T13:32:51.057Z,21.94
2018-07-11T13:35:18.829Z,21.89
2018-07-11T13:37:46.617Z,21.97
2018-07-11T13:40:14.318Z,21.86
2018-07-11T13:42:42.898Z,21.96
2018-07-11T13:45:10.646Z,21.87
2018-07-11T13:47:38.382Z,21.93
2018-07-11T13:50:06.077Z,21.74
2018-07-11T13:52:33.950Z,21.89
2018-07-11T13:55:01.746Z,21.87
2018-07-11T13:57:29.571Z,21.94
2018-07-11T13:59:57.293Z,21.92
2018-07-11T14:02:25.050Z,21.90
2018-07-11T14:04:52.808Z,21.78
2018-07-11T14:07:20.583Z,21.75
2018-07-11T14:09:48.273Z,21.70
2018-07-11T14:12:16.058Z,21.76
2018-07-11T14:14:43.787Z,21.74
2018-07-11T14:17:11.596Z,21.75
2018-07-11T14:19:39.329Z,21.83
2018-07-11T14:22:07.065Z,21.76
2018-07-11T14:24:34.844Z,21.81
2018-07-11T14:27:02.706Z,21.67
2018-07-11T14:29:30.882Z,21.80
2018-07-11T14:31:59.412Z,21.75
2018-07-11T14:34:27.145Z,21.76
2018-07-11T14:36:54.874Z,21.81
2018-07-11T14:39:22.638Z,21.81
2018-07-11T14:41:50.305Z,21.81
2018-07-11T14:44:18.067Z,21.81
2018-07-11T14:46:45.790Z,21.78
2018-07-11T14:49:16.869Z,21.84
2018-07-11T14:51:44.655Z,21.81
2018-07-11T14:54:12.576Z,21.80
2018-07-11T14:56:40.341Z,21.77
2018-07-11T14:59:08.164Z,21.68
2018-07-11T15:01:35.910Z,21.54
2018-07-11T15:04:03.670Z,21.43
2018-07-11T15:06:31.338Z,21.50
2018-07-11T15:08:59.169Z,21.50
2018-07-11T15:11:26.875Z,21.48
2018-07-11T15:13:54.725Z,21.35
2018-07-11T15:16:22.455Z,21.38
2018-07-11T15:18:50.711Z,21.33
2018-07-11T15:21:18.419Z,21.48
2018-07-11T15:23:46.109Z,21.49
2018-07-11T15:26:13.862Z,21.51
2018-07-11T15:28:41.876Z,21.20
2018-07-11T15:31:09.692Z,21.18
2018-07-11T15:33:37.458Z,21.23
2018-07-11T15:36:05.293Z,21.23
2018-07-11T15:38:33.118Z,21.26
2018-07-11T15:41:01.554Z,21.11
2018-07-11T15:43:29.694Z,21.23
2018-07-11T15:45:58.338Z,21.33
2018-07-11T15:48:26.250Z,21.40
2018-07-11T15:50:54.788Z,21.45
2018-07-11T15:53:22.925Z,21.45
2018-07-11T15:55:51.538Z,21.42
2018-07-11T15:58:20.551Z,21.45
2018-07-11T16:00:48.371Z,21.44
2018-07-11T16:03:16.761Z,21.50
2018-07-11T16:05:45.637Z,21.48
2018-07-11T16:08:16.802Z,21.49
2018-07-11T16:10:50.867Z,21.53
2018-07-11T16:13:18.638Z,21.54
2018-07-11T16:15:46.474Z,21.57
2018-07-11T16:18:14.276Z,21.55
2018-07-11T16:20:42.092Z,21.55
2018-07-11T16:23:10.182Z,21.62
2018-07-11T16:25:39.263Z,21.61
2018-07-11T16:28:07.261Z,21.61
2018-07-11T16:30:35.341Z,21.69
2018-07-11T16:33:03.470Z,21.71
2018-07-11T16:35:31.400Z,21.68
2018-07-11T16:37:59.110Z,21.73
2018-07-11T16:40:27.833Z,21.68
2018-07-11T16:42:55.604Z,21.68
2018-07-11T16:45:23.775Z,21.66
2018-07-11T16:47:51.590Z,21.62
2018-07-11T16:50:19.819Z,21.66
2018-07-11T16:52:47.721Z,21.65
2018-07-11T16:55:15.599Z,21.54
2018-07-11T16:57:45.702Z,21.59
2018-07-11T17:00:13.461Z,21.60
2018-07-11T17:02:43.076Z,21.61
2018-07-11T17:05:11.970Z,21.58
2018-07-11T17:07:49.597Z,21.57
2018-07-11T17:10:18.892Z,21.57
2018-07-11T17:12:51.199Z,21.59
2018-07-11T17:15:20.082Z,21.52
2018-07-11T17:17:47.872Z,21.52
2018-07-11T17:20:15.685Z,21.59
2018-07-11T17:22:58.733Z,21.55
2018-07-11T17:25:34.798Z,21.61
2018-07-11T17:28:03.357Z,21.62
2018-07-11T17:30:33.788Z,21.60
2018-07-11T17:33:04.228Z,21.59
2018-07-11T17:35:32.269Z,21.58
2018-07-11T17:38:02.517Z,21.54
2018-07-11T17:40:36.138Z,21.54
2018-07-11T17:43:05.549Z,21.61
2018-07-11T17:45:35.346Z,21.62
2018-07-11T17:48:28.932Z,21.60
2018-07-11T17:51:01.001Z,21.63
2018-07-11T17:53:35.963Z,21.67
2018-07-11T17:56:08.766Z,21.66
2018-07-11T17:58:54.967Z,21.66
2018-07-11T18:01:45.996Z,21.70
2018-07-11T18:04:21.437Z,21.67
2018-07-11T18:06:57.038Z,21.60
2018-07-11T18:09:24.840Z,21.59
2018-07-11T18:11:58.509Z,21.58
2018-07-11T18:14:41.814Z,21.54
2018-07-11T18:18:23.990Z,21.56
2018-07-11T18:21:13.321Z,21.47
2018-07-11T18:24:00.993Z,21.40
2018-07-11T18:26:43.285Z,21.44
2018-07-11T18:29:19.289Z,21.38
2018-07-11T18:31:57.651Z,21.42
2018-07-11T18:34:48.122Z,21.40
2018-07-11T18:37:25.481Z,21.40
2018-07-11T18:40:00.079Z,21.39
2018-07-11T18:42:32.284Z,21.35
2018-07-11T18:45:16.842Z,21.24
2018-07-11T18:48:00.369Z,21.10
2018-07-11T18:51:39.768Z,21.20
2018-07-11T18:54:11.237Z,21.19
2018-07-11T18:57:52.485Z,21.17
2018-07-11T19:00:32.088Z,21.02
2018-07-11T19:03:17.158Z,21.08
2018-07-11T19:05:55.474Z,21.08
2018-07-11T19:08:31.302Z,21.08
2018-07-11T19:11:03.741Z,21.04
2018-07-11T19:13:33.022Z,21.05
2018-07-11T19:16:08.194Z,21.01
2018-07-11T19:19:14.694Z,20.94
2018-07-11T19:21:55.335Z,20.96
2018-07-11T19:26:40.763Z,20.95
2018-07-11T19:29:15.221Z,20.92
2018-07-11T19:31:53.538Z,20.73
2018-07-11T19:35:01.374Z,20.89
2018-07-11T19:38:12.535Z,20.87
2018-07-11T19:40:49.078Z,20.87
2018-07-11T19:46:33.070Z,20.85
2018-07-11T19:49:17.901Z,20.79
2018-07-11T19:51:59.218Z,20.82
2018-07-11T19:55:09.209Z,20.83
2018-07-11T19:57:36.978Z,20.71
2018-07-11T20:00:04.672Z,20.65
2018-07-11T20:02:32.422Z,20.53
2018-07-11T20:05:00.166Z,20.55
2018-07-11T20:07:27.863Z,20.48
2018-07-11T20:09:55.646Z,20.42
2018-07-11T20:12:23.416Z,20.36
2018-07-11T20:14:51.226Z,19.76
2018-07-11T20:17:18.906Z,20.16
2018-07-11T20:19:46.701Z,19.82
2018-07-11T20:22:14.441Z,19.63
2018-07-11T20:24:42.110Z,19.33
2018-07-11T20:27:09.875Z,19.68
2018-07-11T20:29:37.587Z,19.40
2018-07-11T20:32:05.315Z,19.27
2018-07-11T20:34:33.110Z,19.50
2018-07-11T20:37:00.806Z,19.19
2018-07-11T20:39:28.532Z,19.62
2018-07-11T20:41:56.248Z,19.38
2018-07-11T20:44:24.018Z,19.31
2018-07-11T20:46:51.770Z,19.46
2018-07-11T20:49:25.218Z,19.03
2018-07-11T20:51:52.879Z,19.13
2018-07-11T20:54:20.574Z,18.93
2018-07-11T20:56:48.268Z,19.19
2018-07-11T20:59:27.011Z,19.44
2018-07-11T21:02:05.994Z,19.33
2018-07-11T21:04:44.509Z,18.84
2018-07-11T21:09:26.305Z,19.12
2018-07-11T21:12:08.277Z,19.04
2018-07-11T21:15:19.958Z,19.18
2018-07-11T21:20:01.234Z,18.89
2018-07-11T21:22:28.897Z,18.67
2018-07-11T21:24:58.025Z,18.78
2018-07-11T21:27:25.689Z,19.03
2018-07-11T21:29:53.396Z,19.04
2018-07-11T21:32:21.071Z,18.47
2018-07-11T21:34:48.709Z,18.88
2018-07-11T21:37:16.407Z,18.97
2018-07-11T21:39:44.077Z,18.94
2018-07-11T21:42:11.805Z,18.46
2018-07-11T21:44:39.467Z,18.71
2018-07-11T21:47:07.141Z,18.80
2018-07-11T21:49:34.808Z,18.42
2018-07-11T21:52:02.498Z,18.61
2018-07-11T21:54:30.147Z,18.50
2018-07-11T21:56:57.841Z,18.54
2018-07-11T21:59:25.584Z,18.23
2018-07-11T22:01:53.307Z,18.30
2018-07-11T22:04:20.991Z,18.49
2018-07-11T22:06:48.664Z,18.56
2018-07-11T22:09:16.355Z,18.49
2018-07-11T22:11:44.050Z,18.44
2018-07-11T22:14:11.736Z,18.44
2018-07-11T22:16:39.442Z,17.90
2018-07-11T22:19:07.124Z,17.91
2018-07-11T22:21:33.574Z,18.04
2018-07-11T22:24:00.017Z,17.98
2018-07-11T22:26:27.465Z,18.14
2018-07-11T22:28:53.924Z,18.03
2018-07-11T22:31:20.394Z,17.74
2018-07-11T22:33:46.830Z,17.91
2018-07-11T22:36:13.264Z,17.96
2018-07-11T22:38:39.718Z,17.93
2018-07-11T22:41:06.160Z,17.89
2018-07-11T22:43:32.617Z,17.59
2018-07-11T22:45:59.052Z,17.40
2018-07-11T22:48:25.474Z,17.13
2018-07-11T22:50:51.934Z,16.89
2018-07-11T22:53:18.402Z,17.15
2018-07-11T22:55:44.834Z,16.93
2018-07-11T22:58:11.276Z,16.88
2018-07-11T23:00:37.701Z,17.12
2018-07-11T23:03:04.121Z,17.04
2018-07-11T23:05:30.731Z,17.21
2018-07-11T23:07:57.163Z,17.18
2018-07-11T23:10:23.596Z,17.27
2018-07-11T23:12:50.077Z,17.47
2018-07-11T23:15:16.513Z,16.90
2018-07-11T23:17:42.946Z,17.24
2018-07-11T23:20:09.817Z,17.13
2018-07-11T23:22:36.249Z,16.98
2018-07-11T23:25:02.693Z,16.51
2018-07-11T23:27:29.155Z,16.62
2018-07-11T23:29:55.610Z,16.94
2018-07-11T23:32:22.066Z,16.85
2018-07-11T23:34:48.514Z,16.58
2018-07-11T23:37:14.922Z,16.35
2018-07-11T23:39:41.362Z,16.32
2018-07-11T23:42:07.790Z,16.59
2018-07-11T23:44:34.241Z,16.74
2018-07-11T23:47:00.656Z,16.49
2018-07-11T23:49:27.081Z,16.51
2018-07-11T23:51:54.213Z,16.57
2018-07-11T23:54:20.686Z,16.91
2018-07-11T23:56:47.142Z,16.94
2018-07-11T23:59:13.601Z,16.57
